sensor_id;sensor_type;location;lat;lon;timestamp;temperature;humidity
62339;DHT22;48368;53.406;6.214;2024-03-02T00:00:38;7.50;99.90
62339;DHT22;48368;53.406;6.214;2024-03-02T00:03:07;7.60;99.90
62339;DHT22;48368;53.406;6.214;2024-03-02T00:05:40;7.60;99.90
62339;DHT22;48368;53.406;6.214;2024-03-02T00:08:07;7.60;99.90
62339;DHT22;48368;53.406;6.214;2024-03-02T00:10:38;7.60;99.90
62339;DHT22;48368;53.406;6.214;2024-03-02T00:13:06;7.50;99.90
62339;DHT22;48368;53.406;6.214;2024-03-02T00:15:48;7.50;99.90
62339;DHT22;48368;53.406;6.214;2024-03-02T00:18:19;7.50;99.90
62339;DHT22;48368;53.406;6.214;2024-03-02T00:20:45;7.50;99.90
62339;DHT22;48368;53.406;6.214;2024-03-02T00:23:15;7.50;99.90
62339;DHT22;48368;53.406;6.214;2024-03-02T00:25:54;7.50;99.90
62339;DHT22;48368;53.406;6.214;2024-03-02T00:28:29;7.50;99.90
62339;DHT22;48368;53.406;6.214;2024-03-02T00:31:02;7.50;99.90
62339;DHT22;48368;53.406;6.214;2024-03-02T00:33:34;7.40;99.90
62339;DHT22;48368;53.406;6.214;2024-03-02T00:36:01;7.50;99.90
62339;DHT22;48368;53.406;6.214;2024-03-02T00:38:29;7.40;99.90
62339;DHT22;48368;53.406;6.214;2024-03-02T00:41:07;7.40;99.90
62339;DHT22;48368;53.406;6.214;2024-03-02T00:46:21;7.40;99.90
62339;DHT22;48368;53.406;6.214;2024-03-02T00:48:59;7.50;99.90
62339;DHT22;48368;53.406;6.214;2024-03-02T00:51:27;7.50;99.90
62339;DHT22;48368;53.406;6.214;2024-03-02T00:53:54;7.50;99.90
62339;DHT22;48368;53.406;6.214;2024-03-02T00:56:24;7.50;99.90
62339;DHT22;48368;53.406;6.214;2024-03-02T00:58:50;7.50;99.90
62339;DHT22;48368;53.406;6.214;2024-03-02T01:01:16;7.50;99.90
62339;DHT22;48368;53.406;6.214;2024-03-02T01:03:42;7.50;99.90
62339;DHT22;48368;53.406;6.214;2024-03-02T01:06:08;7.40;99.90
62339;DHT22;48368;53.406;6.214;2024-03-02T01:08:35;7.50;99.90
62339;DHT22;48368;53.406;6.214;2024-03-02T01:11:01;7.40;99.90
62339;DHT22;48368;53.406;6.214;2024-03-02T01:13:27;7.40;99.90
62339;DHT22;48368;53.406;6.214;2024-03-02T01:15:53;7.40;99.90
62339;DHT22;48368;53.406;6.214;2024-03-02T01:18:19;7.40;99.90
62339;DHT22;48368;53.406;6.214;2024-03-02T01:20:45;7.40;99.90
62339;DHT22;48368;53.406;6.214;2024-03-02T01:23:11;7.40;99.90
62339;DHT22;48368;53.406;6.214;2024-03-02T01:25:37;7.50;99.90
62339;DHT22;48368;53.406;6.214;2024-03-02T01:28:03;7.50;99.90
62339;DHT22;48368;53.406;6.214;2024-03-02T01:30:32;7.50;99.90
62339;DHT22;48368;53.406;6.214;2024-03-02T01:32:58;7.50;99.90
62339;DHT22;48368;53.406;6.214;2024-03-02T01:35:25;7.40;99.90
62339;DHT22;48368;53.406;6.214;2024-03-02T01:37:52;7.50;99.90
62339;DHT22;48368;53.406;6.214;2024-03-02T01:40:18;7.50;99.90
62339;DHT22;48368;53.406;6.214;2024-03-02T01:42:44;7.40;99.90
62339;DHT22;48368;53.406;6.214;2024-03-02T01:45:10;7.50;99.90
62339;DHT22;48368;53.406;6.214;2024-03-02T01:47:36;7.50;99.90
62339;DHT22;48368;53.406;6.214;2024-03-02T01:50:02;7.50;99.90
62339;DHT22;48368;53.406;6.214;2024-03-02T01:52:28;7.50;99.90
62339;DHT22;48368;53.406;6.214;2024-03-02T01:54:55;7.60;99.90
62339;DHT22;48368;53.406;6.214;2024-03-02T01:57:21;7.50;99.90
62339;DHT22;48368;53.406;6.214;2024-03-02T01:59:47;7.60;99.90
62339;DHT22;48368;53.406;6.214;2024-03-02T02:02:14;7.50;99.90
62339;DHT22;48368;53.406;6.214;2024-03-02T02:04:40;7.60;99.90
62339;DHT22;48368;53.406;6.214;2024-03-02T02:07:07;7.60;99.90
62339;DHT22;48368;53.406;6.214;2024-03-02T02:09:33;7.60;99.90
62339;DHT22;48368;53.406;6.214;2024-03-02T02:11:59;7.60;99.90
62339;DHT22;48368;53.406;6.214;2024-03-02T02:14:25;7.60;99.90
62339;DHT22;48368;53.406;6.214;2024-03-02T02:16:51;7.60;99.90
62339;DHT22;48368;53.406;6.214;2024-03-02T02:19:17;7.60;99.90
62339;DHT22;48368;53.406;6.214;2024-03-02T02:21:43;7.60;99.90
62339;DHT22;48368;53.406;6.214;2024-03-02T02:24:09;7.60;99.90
62339;DHT22;48368;53.406;6.214;2024-03-02T02:26:35;7.60;99.90
62339;DHT22;48368;53.406;6.214;2024-03-02T02:29:01;7.60;99.90
62339;DHT22;48368;53.406;6.214;2024-03-02T02:31:36;7.60;99.90
62339;DHT22;48368;53.406;6.214;2024-03-02T02:34:11;7.60;99.90
62339;DHT22;48368;53.406;6.214;2024-03-02T02:36:38;7.70;99.90
62339;DHT22;48368;53.406;6.214;2024-03-02T02:39:06;7.70;99.90
62339;DHT22;48368;53.406;6.214;2024-03-02T02:41:33;7.70;99.90
62339;DHT22;48368;53.406;6.214;2024-03-02T02:43:59;7.70;99.90
62339;DHT22;48368;53.406;6.214;2024-03-02T02:46:24;7.70;99.90
62339;DHT22;48368;53.406;6.214;2024-03-02T02:48:53;7.70;99.90
62339;DHT22;48368;53.406;6.214;2024-03-02T02:51:19;7.80;99.90
62339;DHT22;48368;53.406;6.214;2024-03-02T02:53:45;7.80;99.90
62339;DHT22;48368;53.406;6.214;2024-03-02T02:56:10;7.80;99.90
62339;DHT22;48368;53.406;6.214;2024-03-02T02:58:36;7.80;99.90
62339;DHT22;48368;53.406;6.214;2024-03-02T03:01:02;7.80;99.90
62339;DHT22;48368;53.406;6.214;2024-03-02T03:03:28;7.80;99.90
62339;DHT22;48368;53.406;6.214;2024-03-02T03:05:55;7.80;99.90
62339;DHT22;48368;53.406;6.214;2024-03-02T03:08:21;7.80;99.90
62339;DHT22;48368;53.406;6.214;2024-03-02T03:10:49;7.70;99.90
62339;DHT22;48368;53.406;6.214;2024-03-02T03:13:15;7.70;99.90
62339;DHT22;48368;53.406;6.214;2024-03-02T03:15:43;7.70;99.90
62339;DHT22;48368;53.406;6.214;2024-03-02T03:18:09;7.70;99.90
62339;DHT22;48368;53.406;6.214;2024-03-02T03:20:36;7.70;99.90
62339;DHT22;48368;53.406;6.214;2024-03-02T03:23:03;7.70;99.90
62339;DHT22;48368;53.406;6.214;2024-03-02T03:25:30;7.70;99.90
62339;DHT22;48368;53.406;6.214;2024-03-02T03:27:56;7.60;99.90
62339;DHT22;48368;53.406;6.214;2024-03-02T03:30:21;7.70;99.90
62339;DHT22;48368;53.406;6.214;2024-03-02T03:32:47;7.60;99.90
62339;DHT22;48368;53.406;6.214;2024-03-02T03:35:16;7.60;99.90
62339;DHT22;48368;53.406;6.214;2024-03-02T03:37:41;7.60;99.90
62339;DHT22;48368;53.406;6.214;2024-03-02T03:40:11;7.60;99.90
62339;DHT22;48368;53.406;6.214;2024-03-02T03:42:40;7.60;99.90
62339;DHT22;48368;53.406;6.214;2024-03-02T03:45:06;7.60;99.90
62339;DHT22;48368;53.406;6.214;2024-03-02T03:47:32;7.50;99.90
62339;DHT22;48368;53.406;6.214;2024-03-02T03:49:58;7.40;99.90
62339;DHT22;48368;53.406;6.214;2024-03-02T03:52:24;7.50;99.90
62339;DHT22;48368;53.406;6.214;2024-03-02T03:54:50;7.50;99.90
62339;DHT22;48368;53.406;6.214;2024-03-02T03:57:16;7.50;99.90
62339;DHT22;48368;53.406;6.214;2024-03-02T03:59:42;7.50;99.90
62339;DHT22;48368;53.406;6.214;2024-03-02T04:02:09;7.50;99.90
62339;DHT22;48368;53.406;6.214;2024-03-02T04:04:35;7.50;99.90
62339;DHT22;48368;53.406;6.214;2024-03-02T04:07:01;7.50;99.90
62339;DHT22;48368;53.406;6.214;2024-03-02T04:09:27;7.50;99.90
62339;DHT22;48368;53.406;6.214;2024-03-02T04:11:59;7.40;99.90
62339;DHT22;48368;53.406;6.214;2024-03-02T04:14:25;7.50;99.90
62339;DHT22;48368;53.406;6.214;2024-03-02T04:16:50;7.40;99.90
62339;DHT22;48368;53.406;6.214;2024-03-02T04:19:17;7.40;99.90
62339;DHT22;48368;53.406;6.214;2024-03-02T04:21:51;7.50;99.90
62339;DHT22;48368;53.406;6.214;2024-03-02T04:24:20;7.50;99.90
62339;DHT22;48368;53.406;6.214;2024-03-02T04:26:45;7.50;99.90
62339;DHT22;48368;53.406;6.214;2024-03-02T04:29:20;7.50;99.90
62339;DHT22;48368;53.406;6.214;2024-03-02T04:31:46;7.50;99.90
62339;DHT22;48368;53.406;6.214;2024-03-02T04:34:12;7.60;99.90
62339;DHT22;48368;53.406;6.214;2024-03-02T04:36:38;7.60;99.90
62339;DHT22;48368;53.406;6.214;2024-03-02T04:39:03;7.60;99.90
62339;DHT22;48368;53.406;6.214;2024-03-02T04:41:30;7.60;99.90
62339;DHT22;48368;53.406;6.214;2024-03-02T04:43:55;7.60;99.90
62339;DHT22;48368;53.406;6.214;2024-03-02T04:46:21;7.60;99.90
62339;DHT22;48368;53.406;6.214;2024-03-02T04:48:47;7.60;99.90
62339;DHT22;48368;53.406;6.214;2024-03-02T04:51:16;7.50;99.90
62339;DHT22;48368;53.406;6.214;2024-03-02T04:53:42;7.60;99.90
62339;DHT22;48368;53.406;6.214;2024-03-02T04:56:08;7.50;99.90
62339;DHT22;48368;53.406;6.214;2024-03-02T04:58:52;7.50;99.90
62339;DHT22;48368;53.406;6.214;2024-03-02T05:01:18;7.50;99.90
62339;DHT22;48368;53.406;6.214;2024-03-02T05:03:45;7.50;99.90
62339;DHT22;48368;53.406;6.214;2024-03-02T05:06:12;7.60;99.90
62339;DHT22;48368;53.406;6.214;2024-03-02T05:08:38;7.60;99.90
62339;DHT22;48368;53.406;6.214;2024-03-02T05:11:04;7.60;99.90
62339;DHT22;48368;53.406;6.214;2024-03-02T05:13:48;7.60;99.90
62339;DHT22;48368;53.406;6.214;2024-03-02T05:16:13;7.60;99.90
62339;DHT22;48368;53.406;6.214;2024-03-02T05:18:39;7.60;99.90
62339;DHT22;48368;53.406;6.214;2024-03-02T05:21:05;7.60;99.90
62339;DHT22;48368;53.406;6.214;2024-03-02T05:23:31;7.60;99.90
62339;DHT22;48368;53.406;6.214;2024-03-02T05:25:56;7.60;99.90
62339;DHT22;48368;53.406;6.214;2024-03-02T05:28:22;7.60;99.90
62339;DHT22;48368;53.406;6.214;2024-03-02T05:30:48;7.60;99.90
62339;DHT22;48368;53.406;6.214;2024-03-02T05:33:13;7.60;99.90
62339;DHT22;48368;53.406;6.214;2024-03-02T05:35:39;7.60;99.90
62339;DHT22;48368;53.406;6.214;2024-03-02T05:38:05;7.60;99.90
62339;DHT22;48368;53.406;6.214;2024-03-02T05:40:30;7.60;99.90
62339;DHT22;48368;53.406;6.214;2024-03-02T05:42:56;7.60;99.90
62339;DHT22;48368;53.406;6.214;2024-03-02T05:45:21;7.50;99.90
62339;DHT22;48368;53.406;6.214;2024-03-02T05:47:47;7.50;99.90
62339;DHT22;48368;53.406;6.214;2024-03-02T05:50:13;7.50;99.90
62339;DHT22;48368;53.406;6.214;2024-03-02T05:52:38;7.50;99.90
62339;DHT22;48368;53.406;6.214;2024-03-02T05:55:04;7.50;99.90
62339;DHT22;48368;53.406;6.214;2024-03-02T05:57:30;7.50;99.90
62339;DHT22;48368;53.406;6.214;2024-03-02T06:00:20;7.50;99.90
62339;DHT22;48368;53.406;6.214;2024-03-02T06:02:47;7.50;99.90
62339;DHT22;48368;53.406;6.214;2024-03-02T06:05:14;7.40;99.90
62339;DHT22;48368;53.406;6.214;2024-03-02T06:07:41;7.50;99.90
62339;DHT22;48368;53.406;6.214;2024-03-02T06:10:07;7.40;99.90
62339;DHT22;48368;53.406;6.214;2024-03-02T06:12:37;7.40;99.90
62339;DHT22;48368;53.406;6.214;2024-03-02T06:15:03;7.40;99.90
62339;DHT22;48368;53.406;6.214;2024-03-02T06:17:29;7.30;99.90
62339;DHT22;48368;53.406;6.214;2024-03-02T06:19:58;7.20;99.90
62339;DHT22;48368;53.406;6.214;2024-03-02T06:22:23;7.20;99.90
62339;DHT22;48368;53.406;6.214;2024-03-02T06:24:51;7.20;99.90
62339;DHT22;48368;53.406;6.214;2024-03-02T06:27:16;7.20;99.90
62339;DHT22;48368;53.406;6.214;2024-03-02T06:29:42;7.20;99.90
62339;DHT22;48368;53.406;6.214;2024-03-02T06:32:08;7.20;99.90
62339;DHT22;48368;53.406;6.214;2024-03-02T06:34:33;7.10;99.90
62339;DHT22;48368;53.406;6.214;2024-03-02T06:36:59;7.10;99.90
62339;DHT22;48368;53.406;6.214;2024-03-02T06:39:25;7.10;99.90
62339;DHT22;48368;53.406;6.214;2024-03-02T06:41:51;7.10;99.90
62339;DHT22;48368;53.406;6.214;2024-03-02T06:44:17;7.10;99.90
62339;DHT22;48368;53.406;6.214;2024-03-02T06:46:43;7.00;99.90
62339;DHT22;48368;53.406;6.214;2024-03-02T06:49:09;7.00;99.90
62339;DHT22;48368;53.406;6.214;2024-03-02T06:51:36;6.90;99.90
62339;DHT22;48368;53.406;6.214;2024-03-02T06:54:02;6.90;99.90
62339;DHT22;48368;53.406;6.214;2024-03-02T06:56:27;6.80;99.90
62339;DHT22;48368;53.406;6.214;2024-03-02T06:58:53;6.90;99.90
62339;DHT22;48368;53.406;6.214;2024-03-02T07:01:19;6.80;99.90
62339;DHT22;48368;53.406;6.214;2024-03-02T07:03:45;6.80;99.90
62339;DHT22;48368;53.406;6.214;2024-03-02T07:06:11;6.80;99.90
62339;DHT22;48368;53.406;6.214;2024-03-02T07:08:37;6.70;99.90
62339;DHT22;48368;53.406;6.214;2024-03-02T07:11:03;6.70;99.90
62339;DHT22;48368;53.406;6.214;2024-03-02T07:13:28;6.60;99.90
62339;DHT22;48368;53.406;6.214;2024-03-02T07:15:54;6.70;99.90
62339;DHT22;48368;53.406;6.214;2024-03-02T07:18:20;6.70;99.90
62339;DHT22;48368;53.406;6.214;2024-03-02T07:20:45;6.60;99.90
62339;DHT22;48368;53.406;6.214;2024-03-02T07:23:11;6.60;99.90
62339;DHT22;48368;53.406;6.214;2024-03-02T07:25:37;6.60;99.90
62339;DHT22;48368;53.406;6.214;2024-03-02T07:28:02;6.60;99.90
62339;DHT22;48368;53.406;6.214;2024-03-02T07:30:29;6.70;99.90
62339;DHT22;48368;53.406;6.214;2024-03-02T07:32:58;6.70;99.90
62339;DHT22;48368;53.406;6.214;2024-03-02T07:35:24;6.70;99.90
62339;DHT22;48368;53.406;6.214;2024-03-02T07:37:53;6.70;99.90
62339;DHT22;48368;53.406;6.214;2024-03-02T07:40:19;6.80;99.90
62339;DHT22;48368;53.406;6.214;2024-03-02T07:42:45;6.80;99.90
62339;DHT22;48368;53.406;6.214;2024-03-02T07:45:11;6.90;99.90
62339;DHT22;48368;53.406;6.214;2024-03-02T07:47:37;7.00;99.90
62339;DHT22;48368;53.406;6.214;2024-03-02T07:50:03;7.00;99.90
62339;DHT22;48368;53.406;6.214;2024-03-02T07:52:32;7.10;99.90
62339;DHT22;48368;53.406;6.214;2024-03-02T07:54:57;7.20;99.90
62339;DHT22;48368;53.406;6.214;2024-03-02T07:57:23;7.30;99.90
62339;DHT22;48368;53.406;6.214;2024-03-02T07:59:49;7.40;99.90
62339;DHT22;48368;53.406;6.214;2024-03-02T08:02:15;7.50;99.90
62339;DHT22;48368;53.406;6.214;2024-03-02T08:04:41;7.50;99.90
62339;DHT22;48368;53.406;6.214;2024-03-02T08:07:10;7.60;99.90
62339;DHT22;48368;53.406;6.214;2024-03-02T08:09:35;7.60;99.90
62339;DHT22;48368;53.406;6.214;2024-03-02T08:12:01;7.70;99.90
62339;DHT22;48368;53.406;6.214;2024-03-02T08:14:27;7.80;99.90
62339;DHT22;48368;53.406;6.214;2024-03-02T08:16:52;7.80;99.90
62339;DHT22;48368;53.406;6.214;2024-03-02T08:19:18;7.90;99.90
62339;DHT22;48368;53.406;6.214;2024-03-02T08:21:47;8.00;99.90
62339;DHT22;48368;53.406;6.214;2024-03-02T08:24:15;8.00;99.90
62339;DHT22;48368;53.406;6.214;2024-03-02T08:26:42;8.00;99.90
62339;DHT22;48368;53.406;6.214;2024-03-02T08:29:08;8.00;99.90
62339;DHT22;48368;53.406;6.214;2024-03-02T08:31:34;8.00;99.90
62339;DHT22;48368;53.406;6.214;2024-03-02T08:33:59;8.10;99.90
62339;DHT22;48368;53.406;6.214;2024-03-02T08:36:26;8.10;99.90
62339;DHT22;48368;53.406;6.214;2024-03-02T08:38:51;8.10;99.90
62339;DHT22;48368;53.406;6.214;2024-03-02T08:41:17;8.10;99.90
62339;DHT22;48368;53.406;6.214;2024-03-02T08:43:44;8.10;99.90
62339;DHT22;48368;53.406;6.214;2024-03-02T08:46:10;8.10;99.90
62339;DHT22;48368;53.406;6.214;2024-03-02T08:48:35;8.00;99.90
62339;DHT22;48368;53.406;6.214;2024-03-02T08:51:01;8.10;99.90
62339;DHT22;48368;53.406;6.214;2024-03-02T08:53:30;8.00;99.90
62339;DHT22;48368;53.406;6.214;2024-03-02T08:55:55;8.00;99.90
62339;DHT22;48368;53.406;6.214;2024-03-02T08:58:23;8.00;99.90
62339;DHT22;48368;53.406;6.214;2024-03-02T09:04:23;8.00;99.90
62339;DHT22;48368;53.406;6.214;2024-03-02T09:06:50;8.20;99.90
62339;DHT22;48368;53.406;6.214;2024-03-02T09:09:15;8.20;99.90
62339;DHT22;48368;53.406;6.214;2024-03-02T09:11:41;8.30;99.90
62339;DHT22;48368;53.406;6.214;2024-03-02T09:14:07;8.30;99.90
62339;DHT22;48368;53.406;6.214;2024-03-02T09:16:32;8.40;99.90
62339;DHT22;48368;53.406;6.214;2024-03-02T09:18:58;8.40;99.90
62339;DHT22;48368;53.406;6.214;2024-03-02T09:21:24;8.40;99.90
62339;DHT22;48368;53.406;6.214;2024-03-02T09:23:51;8.40;99.90
62339;DHT22;48368;53.406;6.214;2024-03-02T09:26:16;8.40;99.90
62339;DHT22;48368;53.406;6.214;2024-03-02T09:28:45;8.40;99.90
62339;DHT22;48368;53.406;6.214;2024-03-02T09:31:11;8.50;99.90
62339;DHT22;48368;53.406;6.214;2024-03-02T09:33:37;8.50;99.90
62339;DHT22;48368;53.406;6.214;2024-03-02T09:36:04;8.50;99.90
62339;DHT22;48368;53.406;6.214;2024-03-02T09:38:32;8.50;99.90
62339;DHT22;48368;53.406;6.214;2024-03-02T09:41:00;8.60;99.90
62339;DHT22;48368;53.406;6.214;2024-03-02T09:43:26;8.60;99.90
62339;DHT22;48368;53.406;6.214;2024-03-02T09:45:52;8.70;99.90
62339;DHT22;48368;53.406;6.214;2024-03-02T09:48:18;8.70;99.90
62339;DHT22;48368;53.406;6.214;2024-03-02T09:50:46;8.80;99.90
62339;DHT22;48368;53.406;6.214;2024-03-02T09:53:12;8.80;99.90
62339;DHT22;48368;53.406;6.214;2024-03-02T09:55:39;8.80;99.90
62339;DHT22;48368;53.406;6.214;2024-03-02T09:58:09;8.90;99.90
62339;DHT22;48368;53.406;6.214;2024-03-02T10:00:34;9.10;99.90
62339;DHT22;48368;53.406;6.214;2024-03-02T10:03:00;9.20;99.90
62339;DHT22;48368;53.406;6.214;2024-03-02T10:05:27;9.30;99.90
62339;DHT22;48368;53.406;6.214;2024-03-02T10:08:01;9.30;99.90
62339;DHT22;48368;53.406;6.214;2024-03-02T10:10:38;9.30;99.90
62339;DHT22;48368;53.406;6.214;2024-03-02T10:13:08;9.50;99.90
62339;DHT22;48368;53.406;6.214;2024-03-02T10:15:34;9.50;99.90
62339;DHT22;48368;53.406;6.214;2024-03-02T10:18:00;9.60;99.90
62339;DHT22;48368;53.406;6.214;2024-03-02T10:20:27;9.60;99.90
62339;DHT22;48368;53.406;6.214;2024-03-02T10:23:18;9.60;99.90
62339;DHT22;48368;53.406;6.214;2024-03-02T10:25:44;9.80;99.90
62339;DHT22;48368;53.406;6.214;2024-03-02T10:28:10;9.80;99.90
62339;DHT22;48368;53.406;6.214;2024-03-02T10:30:36;9.80;99.90
62339;DHT22;48368;53.406;6.214;2024-03-02T10:33:02;9.90;99.90
62339;DHT22;48368;53.406;6.214;2024-03-02T10:35:29;9.80;99.90
62339;DHT22;48368;53.406;6.214;2024-03-02T10:37:59;9.80;99.90
62339;DHT22;48368;53.406;6.214;2024-03-02T10:40:29;10.00;99.90
62339;DHT22;48368;53.406;6.214;2024-03-02T10:42:55;10.00;99.90
62339;DHT22;48368;53.406;6.214;2024-03-02T10:45:21;9.90;99.90
62339;DHT22;48368;53.406;6.214;2024-03-02T10:47:49;10.00;99.90
62339;DHT22;48368;53.406;6.214;2024-03-02T10:50:15;10.10;99.90
62339;DHT22;48368;53.406;6.214;2024-03-02T10:52:41;10.30;99.90
62339;DHT22;48368;53.406;6.214;2024-03-02T10:55:09;10.40;99.90
62339;DHT22;48368;53.406;6.214;2024-03-02T10:57:51;10.50;99.90
62339;DHT22;48368;53.406;6.214;2024-03-02T11:00:19;10.50;99.90
62339;DHT22;48368;53.406;6.214;2024-03-02T11:02:52;10.40;99.90
62339;DHT22;48368;53.406;6.214;2024-03-02T11:07:53;10.70;99.90
62339;DHT22;48368;53.406;6.214;2024-03-02T11:10:22;10.70;99.90
62339;DHT22;48368;53.406;6.214;2024-03-02T11:12:55;10.60;99.90
62339;DHT22;48368;53.406;6.214;2024-03-02T11:15:25;10.60;99.90
62339;DHT22;48368;53.406;6.214;2024-03-02T11:17:55;10.70;99.90
62339;DHT22;48368;53.406;6.214;2024-03-02T11:20:21;10.80;99.90
62339;DHT22;48368;53.406;6.214;2024-03-02T11:22:47;10.90;99.90
62339;DHT22;48368;53.406;6.214;2024-03-02T11:25:26;10.90;99.90
62339;DHT22;48368;53.406;6.214;2024-03-02T11:33:00;11.00;99.90
62339;DHT22;48368;53.406;6.214;2024-03-02T11:35:26;11.10;99.90
62339;DHT22;48368;53.406;6.214;2024-03-02T11:38:07;11.10;99.90
62339;DHT22;48368;53.406;6.214;2024-03-02T11:40:32;11.10;99.90
62339;DHT22;48368;53.406;6.214;2024-03-02T11:43:01;11.20;99.90
62339;DHT22;48368;53.406;6.214;2024-03-02T11:45:33;11.10;99.90
62339;DHT22;48368;53.406;6.214;2024-03-02T11:48:01;11.10;99.90
62339;DHT22;48368;53.406;6.214;2024-03-02T11:50:41;11.10;99.90
62339;DHT22;48368;53.406;6.214;2024-03-02T11:53:09;11.20;99.90
62339;DHT22;48368;53.406;6.214;2024-03-02T11:55:39;11.10;99.90
62339;DHT22;48368;53.406;6.214;2024-03-02T11:58:16;11.10;99.90
62339;DHT22;48368;53.406;6.214;2024-03-02T12:00:46;11.20;99.90
62339;DHT22;48368;53.406;6.214;2024-03-02T12:03:15;11.20;99.90
62339;DHT22;48368;53.406;6.214;2024-03-02T12:05:50;11.10;99.90
62339;DHT22;48368;53.406;6.214;2024-03-02T12:08:36;11.10;99.90
62339;DHT22;48368;53.406;6.214;2024-03-02T12:11:04;11.20;99.90
62339;DHT22;48368;53.406;6.214;2024-03-02T12:14:23;11.20;99.90
62339;DHT22;48368;53.406;6.214;2024-03-02T12:16:56;11.20;99.90
62339;DHT22;48368;53.406;6.214;2024-03-02T12:23:28;11.30;99.90
62339;DHT22;48368;53.406;6.214;2024-03-02T12:27:16;11.40;99.90
62339;DHT22;48368;53.406;6.214;2024-03-02T12:36:44;11.70;99.90
62339;DHT22;48368;53.406;6.214;2024-03-02T12:39:36;11.60;99.90
62339;DHT22;48368;53.406;6.214;2024-03-02T12:42:58;11.60;99.90
62339;DHT22;48368;53.406;6.214;2024-03-02T12:45:38;11.60;99.90
62339;DHT22;48368;53.406;6.214;2024-03-02T12:48:36;11.60;99.90
62339;DHT22;48368;53.406;6.214;2024-03-02T12:51:23;11.70;99.90
62339;DHT22;48368;53.406;6.214;2024-03-02T12:54:08;11.60;99.90
62339;DHT22;48368;53.406;6.214;2024-03-02T12:56:41;11.70;99.90
62339;DHT22;48368;53.406;6.214;2024-03-02T12:59:18;11.80;99.90
62339;DHT22;48368;53.406;6.214;2024-03-02T13:01:51;11.80;99.90
62339;DHT22;48368;53.406;6.214;2024-03-02T13:04:25;11.90;99.90
62339;DHT22;48368;53.406;6.214;2024-03-02T13:06:52;12.00;99.90
62339;DHT22;48368;53.406;6.214;2024-03-02T13:09:17;12.00;99.90
62339;DHT22;48368;53.406;6.214;2024-03-02T13:11:43;12.00;99.90
62339;DHT22;48368;53.406;6.214;2024-03-02T13:14:11;12.00;99.90
62339;DHT22;48368;53.406;6.214;2024-03-02T13:16:40;12.00;99.90
62339;DHT22;48368;53.406;6.214;2024-03-02T13:19:12;12.20;99.90
62339;DHT22;48368;53.406;6.214;2024-03-02T13:21:38;12.20;99.90
62339;DHT22;48368;53.406;6.214;2024-03-02T13:24:05;12.30;99.90
62339;DHT22;48368;53.406;6.214;2024-03-02T13:26:31;12.30;99.90
62339;DHT22;48368;53.406;6.214;2024-03-02T13:28:57;12.40;99.90
62339;DHT22;48368;53.406;6.214;2024-03-02T13:31:22;12.40;99.90
62339;DHT22;48368;53.406;6.214;2024-03-02T13:33:48;12.30;99.90
62339;DHT22;48368;53.406;6.214;2024-03-02T13:36:14;12.40;99.90
62339;DHT22;48368;53.406;6.214;2024-03-02T13:38:39;12.40;99.90
62339;DHT22;48368;53.406;6.214;2024-03-02T13:41:05;12.40;99.90
62339;DHT22;48368;53.406;6.214;2024-03-02T13:43:31;12.40;99.90
62339;DHT22;48368;53.406;6.214;2024-03-02T13:45:58;12.30;99.90
62339;DHT22;48368;53.406;6.214;2024-03-02T13:48:23;12.40;99.90
62339;DHT22;48368;53.406;6.214;2024-03-02T13:50:51;12.30;99.90
62339;DHT22;48368;53.406;6.214;2024-03-02T13:53:18;12.20;99.90
62339;DHT22;48368;53.406;6.214;2024-03-02T13:55:45;12.20;99.90
62339;DHT22;48368;53.406;6.214;2024-03-02T13:58:10;12.10;99.90
62339;DHT22;48368;53.406;6.214;2024-03-02T14:00:37;12.10;99.90
62339;DHT22;48368;53.406;6.214;2024-03-02T14:03:06;12.10;99.90
62339;DHT22;48368;53.406;6.214;2024-03-02T14:05:32;12.00;99.90
62339;DHT22;48368;53.406;6.214;2024-03-02T14:07:58;12.00;99.90
62339;DHT22;48368;53.406;6.214;2024-03-02T14:10:25;12.00;99.90
62339;DHT22;48368;53.406;6.214;2024-03-02T14:12:51;12.00;99.90
62339;DHT22;48368;53.406;6.214;2024-03-02T14:15:17;11.90;99.90
62339;DHT22;48368;53.406;6.214;2024-03-02T14:17:42;11.90;99.90
62339;DHT22;48368;53.406;6.214;2024-03-02T14:20:08;11.90;99.90
62339;DHT22;48368;53.406;6.214;2024-03-02T14:22:37;11.90;99.90
62339;DHT22;48368;53.406;6.214;2024-03-02T14:25:03;11.70;99.90
62339;DHT22;48368;53.406;6.214;2024-03-02T14:27:29;11.70;99.90
62339;DHT22;48368;53.406;6.214;2024-03-02T14:29:55;11.70;99.90
62339;DHT22;48368;53.406;6.214;2024-03-02T14:32:21;11.70;99.90
62339;DHT22;48368;53.406;6.214;2024-03-02T14:34:46;11.70;99.90
62339;DHT22;48368;53.406;6.214;2024-03-02T14:37:14;11.70;99.90
62339;DHT22;48368;53.406;6.214;2024-03-02T14:39:41;11.70;99.90
62339;DHT22;48368;53.406;6.214;2024-03-02T14:42:06;11.80;99.90
62339;DHT22;48368;53.406;6.214;2024-03-02T14:44:33;11.80;99.90
62339;DHT22;48368;53.406;6.214;2024-03-02T14:47:03;11.80;99.90
62339;DHT22;48368;53.406;6.214;2024-03-02T14:49:32;11.80;99.90
62339;DHT22;48368;53.406;6.214;2024-03-02T14:52:01;11.70;99.90
62339;DHT22;48368;53.406;6.214;2024-03-02T14:54:26;11.80;99.90
62339;DHT22;48368;53.406;6.214;2024-03-02T14:56:52;11.80;99.90
62339;DHT22;48368;53.406;6.214;2024-03-02T14:59:18;11.80;99.90
62339;DHT22;48368;53.406;6.214;2024-03-02T15:01:44;11.80;99.90
62339;DHT22;48368;53.406;6.214;2024-03-02T15:04:09;11.90;99.90
62339;DHT22;48368;53.406;6.214;2024-03-02T15:06:35;11.80;99.90
62339;DHT22;48368;53.406;6.214;2024-03-02T15:09:01;11.90;99.90
62339;DHT22;48368;53.406;6.214;2024-03-02T15:11:27;11.90;99.90
62339;DHT22;48368;53.406;6.214;2024-03-02T15:13:53;11.90;99.90
62339;DHT22;48368;53.406;6.214;2024-03-02T15:16:18;11.90;99.90
62339;DHT22;48368;53.406;6.214;2024-03-02T15:18:44;11.90;99.90
62339;DHT22;48368;53.406;6.214;2024-03-02T15:21:14;11.90;99.90
62339;DHT22;48368;53.406;6.214;2024-03-02T15:23:42;11.90;99.90
62339;DHT22;48368;53.406;6.214;2024-03-02T15:26:09;12.00;99.90
62339;DHT22;48368;53.406;6.214;2024-03-02T15:28:34;12.00;99.90
62339;DHT22;48368;53.406;6.214;2024-03-02T15:31:03;12.00;99.90
62339;DHT22;48368;53.406;6.214;2024-03-02T15:33:29;12.00;99.90
62339;DHT22;48368;53.406;6.214;2024-03-02T15:35:58;11.90;99.90
62339;DHT22;48368;53.406;6.214;2024-03-02T15:38:25;11.80;99.90
62339;DHT22;48368;53.406;6.214;2024-03-02T15:40:51;11.80;99.90
62339;DHT22;48368;53.406;6.214;2024-03-02T15:43:17;11.80;99.90
62339;DHT22;48368;53.406;6.214;2024-03-02T15:45:42;11.80;99.90
62339;DHT22;48368;53.406;6.214;2024-03-02T15:48:08;11.70;99.90
62339;DHT22;48368;53.406;6.214;2024-03-02T15:50:33;11.70;99.90
62339;DHT22;48368;53.406;6.214;2024-03-02T15:53:01;11.80;99.90
62339;DHT22;48368;53.406;6.214;2024-03-02T15:55:29;11.70;99.90
62339;DHT22;48368;53.406;6.214;2024-03-02T15:57:55;11.70;99.90
62339;DHT22;48368;53.406;6.214;2024-03-02T16:00:22;11.70;99.90
62339;DHT22;48368;53.406;6.214;2024-03-02T16:02:47;11.60;99.90
62339;DHT22;48368;53.406;6.214;2024-03-02T16:05:13;11.60;99.90
62339;DHT22;48368;53.406;6.214;2024-03-02T16:07:39;11.50;99.90
62339;DHT22;48368;53.406;6.214;2024-03-02T16:10:05;11.50;99.90